createdAt,value
2022-09-09T00:01:47.299Z,17.67
2022-09-09T00:04:17.710Z,17.63
2022-09-09T00:06:48.666Z,17.60
2022-09-09T00:09:19.239Z,17.64
2022-09-09T00:11:51.575Z,17.82
2022-09-09T00:14:25.593Z,17.74
2022-09-09T00:16:58.103Z,17.80
2022-09-09T00:19:31.099Z,17.93
2022-09-09T00:22:08.630Z,17.83
2022-09-09T00:24:41.307Z,17.81
2022-09-09T00:27:13.234Z,17.68
2022-09-09T00:29:46.257Z,17.87
2022-09-09T00:32:19.536Z,17.87
2022-09-09T00:34:50.732Z,17.83
2022-09-09T00:37:18.648Z,17.64
2022-09-09T00:39:49.120Z,17.66
2022-09-09T00:42:19.091Z,17.53
2022-09-09T00:44:55.473Z,17.62
2022-09-09T00:47:37.725Z,17.64
2022-09-09T00:50:14.153Z,17.52
2022-09-09T00:52:47.541Z,17.76
2022-09-09T00:55:19.915Z,17.69
2022-09-09T00:57:48.686Z,17.79
2022-09-09T01:00:22.917Z,17.70
2022-09-09T01:03:29.560Z,17.85
2022-09-09T01:06:04.350Z,17.99
2022-09-09T01:08:48.326Z,18.08
2022-09-09T01:11:22.680Z,17.90
2022-09-09T01:13:56.065Z,17.75
2022-09-09T01:16:24.196Z,17.60
2022-09-09T01:18:54.998Z,17.54
2022-09-09T01:21:30.021Z,17.61
2022-09-09T01:24:10.870Z,17.55
2022-09-09T01:26:57.338Z,17.56
2022-09-09T01:29:27.830Z,17.41
2022-09-09T01:31:57.446Z,17.54
2022-09-09T01:34:26.900Z,17.54
2022-09-09T01:36:59.559Z,17.74
2022-09-09T01:39:28.221Z,17.85
2022-09-09T01:42:04.063Z,17.87
2022-09-09T01:44:32.345Z,17.76
2022-09-09T01:47:00.241Z,17.69
2022-09-09T01:49:28.192Z,17.70
2022-09-09T01:51:58.100Z,17.63
2022-09-09T01:54:34.793Z,17.76
2022-09-09T01:57:15.421Z,17.86
2022-09-09T01:59:56.528Z,17.93
2022-09-09T02:02:29.110Z,17.91
2022-09-09T02:05:16.181Z,17.86
2022-09-09T02:07:46.909Z,17.96
2022-09-09T02:10:31.095Z,17.94
2022-09-09T02:13:13.387Z,17.99
2022-09-09T02:15:45.795Z,18.10
2022-09-09T02:18:15.487Z,17.92
2022-09-09T02:20:45.016Z,17.91
2022-09-09T02:23:13.737Z,17.96
2022-09-09T02:25:42.653Z,18.08
2022-09-09T02:28:22.294Z,17.97
2022-09-09T02:30:54.365Z,17.95
2022-09-09T02:33:23.584Z,18.01
2022-09-09T02:35:53.599Z,17.96
2022-09-09T02:38:26.747Z,17.99
2022-09-09T02:41:03.501Z,17.93
2022-09-09T02:43:35.410Z,17.86
2022-09-09T02:46:12.758Z,17.90
2022-09-09T02:48:47.127Z,17.97
2022-09-09T02:51:20.022Z,18.00
2022-09-09T02:53:52.601Z,17.92
2022-09-09T02:56:23.410Z,18.07
2022-09-09T02:58:52.849Z,18.02
2022-09-09T03:01:20.811Z,18.04
2022-09-09T03:03:49.018Z,18.04
2022-09-09T03:06:18.352Z,18.01
2022-09-09T03:08:50.932Z,17.82
2022-09-09T03:11:24.131Z,17.95
2022-09-09T03:13:54.203Z,17.83
2022-09-09T03:16:22.920Z,17.85
2022-09-09T03:18:53.287Z,17.83
2022-09-09T03:21:21.912Z,17.80
2022-09-09T03:23:50.854Z,17.70
2022-09-09T03:26:18.741Z,17.84
2022-09-09T03:28:48.143Z,17.87
2022-09-09T03:31:20.872Z,17.85
2022-09-09T03:33:48.909Z,17.95
2022-09-09T03:36:18.279Z,17.90
2022-09-09T03:38:46.244Z,17.96
2022-09-09T03:41:14.541Z,18.04
2022-09-09T03:43:42.832Z,18.06
2022-09-09T03:46:10.663Z,17.96
2022-09-09T03:48:40.413Z,17.90
2022-09-09T03:51:08.187Z,17.98
2022-09-09T03:53:36.737Z,17.99
2022-09-09T03:56:05.161Z,18.01
2022-09-09T03:58:33.145Z,18.03
2022-09-09T04:01:08.950Z,18.03
2022-09-09T04:03:37.498Z,18.09
2022-09-09T04:06:10.573Z,18.07
2022-09-09T04:08:39.502Z,17.89
2022-09-09T04:11:08.547Z,18.06
2022-09-09T04:13:38.661Z,18.10
2022-09-09T04:16:07.144Z,18.13
2022-09-09T04:18:37.028Z,18.06
2022-09-09T04:21:07.985Z,18.04
2022-09-09T04:23:37.075Z,17.95
2022-09-09T04:26:06.435Z,18.01
2022-09-09T04:28:37.045Z,18.01
2022-09-09T04:31:08.788Z,18.07
2022-09-09T04:33:40.298Z,18.22
2022-09-09T04:36:10.403Z,18.11
2022-09-09T04:38:38.876Z,18.15
2022-09-09T04:41:08.203Z,18.23
2022-09-09T04:43:38.385Z,18.15
2022-09-09T04:46:08.536Z,18.12
2022-09-09T04:48:36.905Z,18.16
2022-09-09T04:51:08.977Z,18.24
2022-09-09T04:53:39.411Z,18.14
2022-09-09T04:56:08.754Z,18.18
2022-09-09T04:58:42.798Z,18.23
2022-09-09T05:01:13.161Z,18.20
2022-09-09T05:03:43.051Z,18.14
2022-09-09T05:06:15.086Z,18.16
2022-09-09T05:08:46.338Z,18.09
2022-09-09T05:11:18.756Z,18.19
2022-09-09T05:13:47.789Z,18.25
2022-09-09T05:16:16.315Z,18.17
2022-09-09T05:18:44.753Z,18.22
2022-09-09T05:21:12.721Z,18.32
2022-09-09T05:23:40.717Z,18.44
2022-09-09T05:26:17.515Z,18.40
2022-09-09T05:28:47.848Z,18.46
2022-09-09T05:31:17.966Z,18.39
2022-09-09T05:33:50.240Z,18.43
2022-09-09T05:36:19.865Z,18.41
2022-09-09T05:38:50.215Z,18.37
2022-09-09T05:41:21.006Z,18.64
2022-09-09T05:43:49.771Z,18.54
2022-09-09T05:46:19.724Z,18.58
2022-09-09T05:48:51.633Z,18.61
2022-09-09T05:51:22.779Z,18.66
2022-09-09T05:53:51.979Z,18.74
2022-09-09T05:56:23.540Z,18.65
2022-09-09T05:58:52.711Z,18.61
2022-09-09T06:01:22.182Z,18.44
2022-09-09T06:03:51.185Z,18.59
2022-09-09T06:06:22.360Z,18.53
2022-09-09T06:08:52.440Z,18.65
2022-09-09T06:11:23.087Z,18.68
2022-09-09T06:13:52.535Z,18.76
2022-09-09T06:16:21.722Z,18.69
2022-09-09T06:18:50.108Z,18.72
2022-09-09T06:21:19.400Z,18.73
2022-09-09T06:23:49.108Z,18.78
2022-09-09T06:26:19.039Z,18.87
2022-09-09T06:28:50.312Z,18.83
2022-09-09T06:31:24.112Z,18.87
2022-09-09T06:33:56.561Z,18.69
2022-09-09T06:36:26.903Z,18.78
2022-09-09T06:38:55.193Z,18.75
2022-09-09T06:41:24.550Z,18.78
2022-09-09T06:43:53.985Z,18.78
2022-09-09T06:46:31.115Z,18.62
2022-09-09T06:49:00.717Z,18.80
2022-09-09T06:51:29.862Z,18.71
2022-09-09T06:54:00.513Z,18.82
2022-09-09T06:56:31.067Z,18.81
2022-09-09T06:59:04.743Z,18.81
2022-09-09T07:01:34.658Z,18.93
2022-09-09T07:04:08.912Z,19.04
2022-09-09T07:06:39.581Z,18.92
2022-09-09T07:09:10.262Z,18.97
2022-09-09T07:11:43.285Z,19.11
2022-09-09T07:14:14.921Z,18.81
2022-09-09T07:16:46.792Z,18.62
2022-09-09T07:19:16.924Z,18.59
2022-09-09T07:21:46.165Z,18.69
2022-09-09T07:24:16.644Z,18.66
2022-09-09T07:26:46.685Z,18.84
2022-09-09T07:29:20.035Z,18.88
2022-09-09T07:31:49.713Z,19.27
2022-09-09T07:34:22.954Z,19.50
2022-09-09T07:36:50.798Z,19.40
2022-09-09T07:39:20.033Z,19.73
2022-09-09T07:41:51.963Z,19.70
2022-09-09T07:44:25.739Z,19.76
2022-09-09T07:47:01.050Z,19.59
2022-09-09T07:49:35.790Z,19.52
2022-09-09T07:52:08.821Z,19.38
2022-09-09T07:54:38.169Z,19.73
2022-09-09T07:57:08.002Z,19.53
2022-09-09T07:59:39.152Z,19.51
2022-09-09T08:02:07.673Z,19.67
2022-09-09T08:04:37.185Z,19.92
2022-09-09T08:07:05.692Z,20.09
2022-09-09T08:09:40.348Z,20.31
2022-09-09T08:12:14.329Z,20.06
2022-09-09T08:14:43.834Z,20.16
2022-09-09T08:17:11.904Z,20.08
2022-09-09T08:19:40.087Z,20.47
2022-09-09T08:22:15.056Z,20.27
2022-09-09T08:24:43.272Z,20.14
2022-09-09T08:27:11.579Z,20.17
2022-09-09T08:29:40.353Z,20.32
2022-09-09T08:32:09.691Z,20.47
2022-09-09T08:34:41.253Z,20.61
2022-09-09T08:37:20.392Z,20.93
2022-09-09T08:39:53.964Z,20.94
2022-09-09T08:42:34.949Z,21.00
2022-09-09T08:45:30.874Z,21.06
2022-09-09T08:48:18.698Z,20.84
2022-09-09T08:50:48.420Z,20.69
2022-09-09T08:53:22.820Z,20.84
2022-09-09T08:55:54.017Z,20.92
2022-09-09T08:58:30.346Z,21.42
2022-09-09T09:01:30.190Z,21.83
2022-09-09T09:04:08.590Z,21.68
2022-09-09T09:06:46.141Z,21.38
2022-09-09T09:09:19.433Z,21.12
2022-09-09T09:11:50.381Z,21.06
2022-09-09T09:14:22.315Z,21.15
2022-09-09T09:16:53.964Z,21.13
2022-09-09T09:19:26.235Z,20.96
2022-09-09T09:22:00.698Z,21.11
2022-09-09T09:24:35.597Z,20.99
2022-09-09T09:27:13.561Z,21.19
2022-09-09T09:30:10.055Z,21.82
2022-09-09T09:32:36.109Z,22.14
2022-09-09T09:35:12.349Z,22.07
2022-09-09T09:40:35.204Z,22.70
2022-09-09T09:43:08.810Z,22.45
2022-09-09T09:45:46.761Z,22.40
2022-09-09T09:48:24.056Z,22.92
2022-09-09T09:50:54.676Z,22.36
2022-09-09T09:53:25.711Z,22.10
2022-09-09T09:56:00.073Z,22.27
2022-09-09T09:58:30.917Z,22.50
2022-09-09T10:00:59.677Z,22.34
2022-09-09T10:03:31.604Z,22.53
2022-09-09T10:06:01.762Z,22.01
2022-09-09T10:08:30.390Z,22.36
2022-09-09T10:11:24.561Z,22.66
2022-09-09T10:13:58.729Z,22.68
2022-09-09T10:16:43.352Z,22.79
2022-09-09T10:19:14.740Z,22.70
2022-09-09T10:22:18.579Z,22.94
2022-09-09T10:25:14.021Z,22.82
2022-09-09T10:27:54.257Z,22.97
2022-09-09T10:30:26.775Z,22.89
2022-09-09T10:33:00.055Z,22.41
2022-09-09T10:35:32.347Z,22.45
2022-09-09T10:38:14.746Z,22.67
2022-09-09T10:40:46.881Z,22.88
2022-09-09T10:43:27.622Z,23.05
2022-09-09T10:46:04.269Z,23.15
2022-09-09T10:48:46.662Z,23.07
2022-09-09T10:51:25.773Z,23.56
2022-09-09T10:54:08.983Z,24.00
2022-09-09T10:56:37.060Z,24.37
2022-09-09T10:59:08.692Z,24.05
2022-09-09T11:01:39.906Z,24.25
2022-09-09T11:04:12.089Z,23.80
2022-09-09T11:06:44.371Z,23.46
2022-09-09T11:09:18.652Z,22.79
2022-09-09T11:11:49.342Z,23.17
2022-09-09T11:14:21.931Z,23.29
2022-09-09T11:16:52.840Z,22.77
2022-09-09T11:19:26.365Z,23.01
2022-09-09T11:21:55.797Z,22.86
2022-09-09T11:24:28.047Z,22.87
2022-09-09T11:26:58.715Z,24.10
2022-09-09T11:29:54.885Z,25.16
2022-09-09T11:32:51.136Z,25.95
2022-09-09T11:35:31.487Z,25.50
2022-09-09T11:38:12.054Z,24.85
2022-09-09T11:40:41.651Z,25.85
2022-09-09T11:43:13.710Z,27.28
2022-09-09T11:45:42.899Z,27.64
2022-09-09T11:48:25.898Z,25.32
2022-09-09T11:51:01.284Z,25.30
2022-09-09T11:53:29.177Z,24.54
2022-09-09T11:56:10.240Z,24.25
2022-09-09T11:58:56.754Z,24.38
2022-09-09T12:01:31.286Z,23.84
2022-09-09T12:04:11.844Z,24.23
2022-09-09T12:06:46.493Z,24.85
2022-09-09T12:09:24.216Z,25.01
2022-09-09T12:11:53.549Z,24.47
2022-09-09T12:14:23.727Z,25.66
2022-09-09T12:16:51.936Z,25.07
2022-09-09T12:19:24.807Z,25.13
2022-09-09T12:22:01.952Z,24.97
2022-09-09T12:24:34.784Z,24.64
2022-09-09T12:27:08.925Z,23.66
2022-09-09T12:29:42.440Z,23.85
2022-09-09T12:32:12.985Z,23.70
2022-09-09T12:34:42.113Z,23.31
2022-09-09T12:37:19.117Z,23.08
2022-09-09T12:39:50.380Z,22.83
2022-09-09T12:42:21.310Z,22.09
2022-09-09T12:44:59.498Z,21.69
2022-09-09T12:47:36.016Z,21.23
2022-09-09T12:50:04.158Z,21.05
2022-09-09T12:52:35.198Z,20.58
2022-09-09T12:55:04.416Z,20.58
2022-09-09T12:57:37.364Z,20.68
2022-09-09T13:00:12.345Z,21.15
2022-09-09T13:02:48.494Z,22.89
2022-09-09T13:05:19.046Z,23.15
2022-09-09T13:07:46.845Z,22.97
2022-09-09T13:10:21.481Z,23.22
2022-09-09T13:13:00.761Z,22.83
2022-09-09T13:15:30.742Z,22.50
2022-09-09T13:18:01.664Z,22.54
2022-09-09T13:20:31.962Z,22.46
2022-09-09T13:22:59.946Z,22.66
2022-09-09T13:25:29.757Z,22.50
2022-09-09T13:28:03.585Z,22.38
2022-09-09T13:30:33.266Z,22.99
2022-09-09T13:33:23.495Z,22.94
2022-09-09T13:35:54.138Z,23.02
2022-09-09T13:38:27.040Z,23.18
2022-09-09T13:40:58.517Z,23.74
2022-09-09T13:43:28.184Z,23.82
2022-09-09T13:45:58.904Z,24.22
2022-09-09T13:48:27.648Z,24.42
2022-09-09T13:51:00.414Z,23.30
2022-09-09T13:53:28.595Z,23.25
2022-09-09T13:55:57.825Z,24.05
2022-09-09T13:58:27.453Z,24.01
2022-09-09T14:00:55.420Z,24.08
2022-09-09T14:03:23.261Z,23.30
2022-09-09T14:05:51.163Z,23.15
2022-09-09T14:08:29.759Z,22.78
2022-09-09T14:11:00.455Z,22.29
2022-09-09T14:13:31.426Z,22.13
2022-09-09T14:15:59.324Z,22.14
2022-09-09T14:18:27.135Z,21.28
2022-09-09T14:20:55.023Z,20.91
2022-09-09T14:23:23.580Z,20.71
2022-09-09T14:25:53.074Z,20.57
2022-09-09T14:28:34.241Z,20.44
2022-09-09T14:31:11.632Z,20.73
2022-09-09T14:33:39.426Z,20.74
2022-09-09T14:36:07.636Z,20.94
2022-09-09T14:38:40.521Z,21.13
2022-09-09T14:41:08.378Z,21.06
2022-09-09T14:43:36.129Z,22.12
2022-09-09T14:46:07.655Z,22.96
2022-09-09T14:48:37.086Z,23.33
2022-09-09T14:51:09.438Z,23.62
2022-09-09T14:53:37.458Z,23.62
2022-09-09T14:56:07.032Z,23.16
2022-09-09T14:58:35.710Z,22.64
2022-09-09T15:01:07.658Z,22.16
2022-09-09T15:03:38.188Z,22.14
2022-09-09T15:06:10.579Z,22.24
2022-09-09T15:08:42.402Z,21.92
2022-09-09T15:11:12.097Z,21.64
2022-09-09T15:13:41.121Z,21.67
2022-09-09T15:16:10.479Z,21.59
2022-09-09T15:18:41.161Z,21.39
2022-09-09T15:21:08.925Z,21.66
2022-09-09T15:23:37.269Z,21.40
2022-09-09T15:26:05.571Z,21.87
2022-09-09T15:28:38.111Z,22.23
2022-09-09T15:31:08.419Z,22.25
2022-09-09T15:33:37.718Z,22.17
2022-09-09T15:36:16.874Z,21.52
2022-09-09T15:38:44.916Z,21.65
2022-09-09T15:41:13.156Z,21.22
2022-09-09T15:43:41.471Z,20.51
2022-09-09T15:46:29.047Z,19.99
2022-09-09T15:48:57.606Z,19.53
2022-09-09T15:51:42.241Z,19.32
2022-09-09T15:54:13.208Z,19.25
2022-09-09T15:56:41.757Z,18.90
2022-09-09T15:59:09.530Z,18.35
2022-09-09T16:01:40.409Z,17.75
2022-09-09T16:04:08.386Z,17.52
2022-09-09T16:06:37.746Z,17.84
2022-09-09T16:09:07.012Z,17.66
2022-09-09T16:11:36.620Z,17.80
2022-09-09T16:14:04.959Z,18.01
2022-09-09T16:16:33.303Z,18.24
2022-09-09T16:19:02.920Z,18.31
2022-09-09T16:21:32.352Z,18.44
2022-09-09T16:24:03.279Z,18.44
2022-09-09T16:26:32.828Z,18.37
2022-09-09T16:29:01.437Z,18.40
2022-09-09T16:31:30.080Z,18.22
2022-09-09T16:33:58.861Z,18.20
2022-09-09T16:36:28.057Z,18.52
2022-09-09T16:38:58.233Z,18.56
2022-09-09T16:41:28.824Z,18.60
2022-09-09T16:43:57.284Z,18.60
2022-09-09T16:46:26.309Z,18.69
2022-09-09T16:48:55.676Z,18.76
2022-09-09T16:51:25.507Z,18.75
2022-09-09T16:53:53.902Z,18.72
2022-09-09T16:56:25.416Z,18.75
2022-09-09T16:58:56.573Z,18.78
2022-09-09T17:01:24.484Z,18.85
2022-09-09T17:04:00.045Z,18.68
2022-09-09T17:06:29.793Z,18.51
2022-09-09T17:08:58.321Z,18.58
2022-09-09T17:11:26.426Z,18.58
2022-09-09T17:13:56.384Z,18.40
2022-09-09T17:16:25.760Z,18.47
2022-09-09T17:18:54.158Z,18.35
2022-09-09T17:21:24.383Z,18.20
2022-09-09T17:23:52.491Z,18.14
2022-09-09T17:26:22.485Z,18.03
2022-09-09T17:28:50.368Z,18.05
2022-09-09T17:31:20.361Z,18.14
2022-09-09T17:33:50.338Z,18.22
2022-09-09T17:36:19.481Z,18.32
2022-09-09T17:38:47.836Z,18.26
2022-09-09T17:41:19.243Z,18.15
2022-09-09T17:43:48.040Z,18.13
2022-09-09T17:46:17.126Z,18.01
2022-09-09T17:48:46.503Z,17.95
2022-09-09T17:51:16.888Z,18.06
2022-09-09T17:53:46.427Z,18.03
2022-09-09T17:56:15.727Z,18.10
2022-09-09T17:58:45.239Z,17.92
2022-09-09T18:01:15.303Z,17.94
2022-09-09T18:03:44.536Z,17.91
2022-09-09T18:06:16.168Z,18.06
2022-09-09T18:08:49.619Z,18.04
2022-09-09T18:11:17.774Z,18.02
2022-09-09T18:13:49.915Z,18.03
2022-09-09T18:16:18.691Z,18.09
2022-09-09T18:18:46.731Z,18.08
2022-09-09T18:21:15.849Z,18.17
2022-09-09T18:23:46.922Z,18.03
2022-09-09T18:26:17.085Z,18.03
2022-09-09T18:28:48.400Z,18.08
2022-09-09T18:31:18.098Z,18.08
2022-09-09T18:33:49.043Z,17.98
2022-09-09T18:36:20.761Z,17.99
2022-09-09T18:38:48.842Z,18.03
2022-09-09T18:41:17.252Z,18.02
2022-09-09T18:43:45.737Z,18.06
2022-09-09T18:46:14.072Z,17.90
2022-09-09T18:48:41.868Z,17.86
2022-09-09T18:51:11.444Z,18.00
2022-09-09T18:53:41.287Z,17.90
2022-09-09T18:56:12.171Z,18.05
2022-09-09T18:58:40.663Z,18.02
2022-09-09T19:01:12.357Z,18.07
2022-09-09T19:03:40.210Z,18.07
2022-09-09T19:06:09.995Z,17.96
2022-09-09T19:08:40.377Z,17.97
2022-09-09T19:11:09.745Z,17.89
2022-09-09T19:13:38.219Z,17.86
2022-09-09T19:16:06.569Z,17.78
2022-09-09T19:18:34.712Z,17.72
2022-09-09T19:21:11.443Z,17.69
2022-09-09T19:23:41.347Z,17.64
2022-09-09T19:26:11.037Z,17.61
2022-09-09T19:28:40.138Z,17.61
2022-09-09T19:31:09.742Z,17.70
2022-09-09T19:33:37.940Z,17.55
2022-09-09T19:36:09.255Z,17.65
2022-09-09T19:38:37.132Z,17.66
2022-09-09T19:41:09.239Z,17.70
2022-09-09T19:43:37.597Z,17.70
2022-09-09T19:46:07.772Z,17.72
2022-09-09T19:48:37.474Z,17.75
2022-09-09T19:51:06.165Z,17.72
2022-09-09T19:53:35.861Z,17.69
2022-09-09T19:56:04.395Z,17.80
2022-09-09T19:58:34.917Z,17.79
2022-09-09T20:01:10.558Z,17.84
2022-09-09T20:03:39.655Z,17.77
2022-09-09T20:06:08.744Z,17.85
2022-09-09T20:08:37.892Z,17.76
2022-09-09T20:11:06.887Z,17.59
2022-09-09T20:13:38.867Z,17.72
2022-09-09T20:16:08.869Z,17.81
2022-09-09T20:18:38.416Z,17.78
2022-09-09T20:21:08.142Z,17.74
2022-09-09T20:23:37.231Z,17.88
2022-09-09T20:26:06.977Z,17.81
2022-09-09T20:28:38.172Z,17.75
2022-09-09T20:31:06.666Z,17.67
2022-09-09T20:33:35.798Z,17.75
2022-09-09T20:36:11.452Z,17.74
2022-09-09T20:38:42.653Z,17.66
2022-09-09T20:41:14.337Z,17.61
2022-09-09T20:43:49.278Z,17.79
2022-09-09T20:46:18.402Z,17.68
2022-09-09T20:48:46.349Z,17.68
2022-09-09T20:51:16.200Z,17.75
2022-09-09T20:53:44.469Z,17.64
2022-09-09T20:56:12.654Z,17.67
2022-09-09T20:58:40.513Z,17.75
2022-09-09T21:01:16.047Z,17.66
2022-09-09T21:03:44.560Z,17.64
2022-09-09T21:06:12.888Z,17.72
2022-09-09T21:08:41.117Z,17.76
2022-09-09T21:11:09.042Z,17.68
2022-09-09T21:13:38.676Z,17.68
2022-09-09T21:16:08.018Z,17.76
2022-09-09T21:18:37.618Z,17.90
2022-09-09T21:21:05.437Z,17.86
2022-09-09T21:23:33.184Z,17.85
2022-09-09T21:26:01.110Z,17.83
2022-09-09T21:28:28.845Z,17.82
2022-09-09T21:30:56.812Z,17.84
2022-09-09T21:33:28.165Z,17.73
2022-09-09T21:36:03.230Z,17.82
2022-09-09T21:38:31.163Z,17.83
2022-09-09T21:40:58.974Z,17.96
2022-09-09T21:43:26.708Z,17.97
2022-09-09T21:45:54.462Z,17.92
2022-09-09T21:48:23.737Z,18.05
2022-09-09T21:50:51.506Z,17.94
2022-09-09T21:53:20.724Z,18.02
2022-09-09T21:55:49.673Z,17.92
2022-09-09T21:58:18.246Z,17.93
2022-09-09T22:00:47.646Z,17.94
2022-09-09T22:03:17.152Z,18.03
2022-09-09T22:05:48.787Z,18.01
2022-09-09T22:08:21.164Z,18.03
2022-09-09T22:10:48.935Z,18.12
2022-09-09T22:13:18.016Z,18.07
2022-09-09T22:15:46.768Z,18.06
2022-09-09T22:18:15.986Z,18.13
2022-09-09T22:20:45.027Z,18.11
2022-09-09T22:23:13.917Z,17.91
2022-09-09T22:25:44.685Z,18.13
2022-09-09T22:28:12.496Z,18.09
2022-09-09T22:30:40.179Z,17.98
2022-09-09T22:33:08.030Z,17.93
2022-09-09T22:35:42.100Z,18.00
2022-09-09T22:38:10.137Z,17.99
2022-09-09T22:40:37.966Z,18.04
2022-09-09T22:43:08.192Z,18.11
2022-09-09T22:45:35.994Z,18.06
2022-09-09T22:48:04.831Z,18.01
2022-09-09T22:50:37.899Z,17.97
2022-09-09T22:53:09.541Z,18.05
2022-09-09T22:55:37.198Z,18.06
2022-09-09T22:58:05.110Z,18.02
2022-09-09T23:00:34.167Z,17.91
2022-09-09T23:03:01.973Z,17.93
2022-09-09T23:05:30.574Z,17.82
2022-09-09T23:07:58.754Z,17.85
2022-09-09T23:10:27.130Z,17.62
2022-09-09T23:12:56.657Z,17.73
2022-09-09T23:15:24.479Z,17.79
2022-09-09T23:17:55.707Z,17.72
2022-09-09T23:20:26.561Z,17.71
2022-09-09T23:22:54.324Z,17.82
2022-09-09T23:25:22.799Z,17.60
2022-09-09T23:27:50.709Z,17.69
2022-09-09T23:30:18.497Z,17.61
2022-09-09T23:32:46.954Z,17.68
2022-09-09T23:35:16.186Z,17.61
2022-09-09T23:37:43.990Z,17.74
2022-09-09T23:40:11.809Z,17.69
2022-09-09T23:42:39.557Z,17.67
2022-09-09T23:45:08.757Z,17.64
2022-09-09T23:47:36.549Z,17.59
2022-09-09T23:50:04.570Z,17.67
2022-09-09T23:52:33.617Z,17.67
2022-09-09T23:55:01.381Z,17.75
2022-09-09T23:57:29.113Z,17.70
2022-09-09T23:59:56.834Z,17.75
